createdAt,value
2022-08-11T00:01:17.411Z,0.90
2022-08-11T00:03:51.965Z,0.93
2022-08-11T00:06:28.109Z,1.10
2022-08-11T00:08:58.314Z,0.90
2022-08-11T00:11:39.184Z,1.00
2022-08-11T00:14:17.642Z,1.10
2022-08-11T00:16:56.119Z,1.00
2022-08-11T00:20:14.071Z,0.88
2022-08-11T00:22:23.357Z,1.10
2022-08-11T00:24:55.990Z,1.00
2022-08-11T00:27:36.408Z,1.20
2022-08-11T00:30:07.620Z,1.10
2022-08-11T00:32:37.120Z,1.00
2022-08-11T00:35:54.744Z,1.00
2022-08-11T00:37:58.691Z,1.10
2022-08-11T00:40:37.215Z,1.30
2022-08-11T00:43:22.086Z,1.20
2022-08-11T00:46:13.733Z,1.08
2022-08-11T00:48:57.075Z,1.10
2022-08-11T00:52:02.029Z,1.05
2022-08-11T00:55:18.831Z,1.00
2022-08-11T00:59:02.333Z,1.17
2022-08-11T01:01:52.784Z,1.02
2022-08-11T01:05:09.489Z,0.98
2022-08-11T01:08:34.045Z,1.10
2022-08-11T01:12:15.644Z,1.00
2022-08-11T01:15:57.264Z,1.00
2022-08-11T01:19:09.487Z,0.98
2022-08-11T01:22:34.794Z,0.95
2022-08-11T01:26:05.691Z,0.93
2022-08-11T01:29:34.399Z,0.93
2022-08-11T01:33:02.445Z,1.20
2022-08-11T01:36:09.191Z,1.17
2022-08-11T01:39:37.314Z,1.30
2022-08-11T01:43:16.419Z,1.07
2022-08-11T01:45:52.193Z,1.00
2022-08-11T01:48:42.459Z,1.00
2022-08-11T01:51:36.464Z,1.20
2022-08-11T01:54:21.679Z,1.20
2022-08-11T01:57:10.495Z,1.13
2022-08-11T01:59:49.401Z,1.30
2022-08-11T02:02:45.343Z,1.20
2022-08-11T02:05:27.904Z,1.17
2022-08-11T02:08:12.788Z,1.43
2022-08-11T02:11:07.835Z,1.13
2022-08-11T02:13:52.149Z,1.17
2022-08-11T02:16:38.459Z,1.30
2022-08-11T02:19:39.915Z,1.20
2022-08-11T02:22:50.699Z,1.07
2022-08-11T02:25:37.472Z,1.13
2022-08-11T02:28:12.279Z,1.03
2022-08-11T02:31:22.535Z,1.00
2022-08-11T02:34:21.012Z,1.10
2022-08-11T02:37:01.380Z,1.00
2022-08-11T02:39:40.485Z,1.40
2022-08-11T02:42:32.096Z,1.30
2022-08-11T02:45:20.505Z,1.47
2022-08-11T02:48:17.214Z,1.40
2022-08-11T02:51:07.734Z,1.47
2022-08-11T02:53:54.937Z,1.50
2022-08-11T02:56:44.701Z,1.50
2022-08-11T02:59:53.734Z,1.37
2022-08-11T03:02:56.673Z,1.23
2022-08-11T03:05:53.772Z,1.20
2022-08-11T03:08:52.619Z,1.53
2022-08-11T03:12:02.909Z,1.40
2022-08-11T03:14:59.884Z,1.27
2022-08-11T03:17:33.892Z,1.43
2022-08-11T03:20:18.939Z,1.70
2022-08-11T03:22:58.391Z,1.60
2022-08-11T03:25:35.873Z,1.60
2022-08-11T03:28:18.817Z,1.60
2022-08-11T03:30:56.056Z,1.30
2022-08-11T03:33:47.594Z,1.53
2022-08-11T03:37:15.731Z,1.67
2022-08-11T03:39:56.623Z,1.50
2022-08-11T03:42:33.223Z,2.00
2022-08-11T03:45:13.950Z,1.57
2022-08-11T03:48:09.581Z,1.53
2022-08-11T03:50:56.746Z,1.70
2022-08-11T03:53:49.480Z,1.80
2022-08-11T03:57:03.248Z,2.07
2022-08-11T04:00:18.512Z,2.07
2022-08-11T04:03:38.962Z,1.73
2022-08-11T04:06:55.681Z,1.87
2022-08-11T04:09:59.715Z,2.30
2022-08-11T04:13:11.843Z,2.33
2022-08-11T04:16:12.568Z,2.37
2022-08-11T04:19:43.211Z,2.30
2022-08-11T04:24:35.746Z,2.10
2022-08-11T04:27:02.467Z,2.17
2022-08-11T04:30:02.990Z,2.17
2022-08-11T04:33:10.365Z,1.90
2022-08-11T04:35:55.094Z,2.20
2022-08-11T04:38:47.144Z,1.93
2022-08-11T04:42:17.742Z,1.90
2022-08-11T04:45:28.909Z,1.53
2022-08-11T04:48:42.482Z,1.60
2022-08-11T04:51:58.148Z,1.77
2022-08-11T04:55:01.214Z,1.80
2022-08-11T04:57:59.998Z,1.90
2022-08-11T05:00:57.176Z,1.83
2022-08-11T05:03:47.607Z,1.93
2022-08-11T05:07:02.399Z,1.90
2022-08-11T05:09:47.743Z,1.95
2022-08-11T05:12:38.347Z,1.90
2022-08-11T05:15:31.365Z,1.80
2022-08-11T05:18:34.923Z,1.70
2022-08-11T05:21:28.980Z,2.10
2022-08-11T05:24:29.571Z,2.10
2022-08-11T05:27:21.153Z,2.00
2022-08-11T05:30:14.834Z,2.10
2022-08-11T05:33:05.778Z,2.00
2022-08-11T05:36:01.387Z,2.30
2022-08-11T05:38:53.075Z,1.95
2022-08-11T05:41:43.309Z,2.20
2022-08-11T05:44:30.498Z,1.80
2022-08-11T05:47:17.111Z,2.00
2022-08-11T05:50:09.651Z,1.88
2022-08-11T05:53:05.139Z,1.92
2022-08-11T05:56:02.457Z,1.88
2022-08-11T05:58:42.369Z,1.67
2022-08-11T06:01:13.566Z,1.70
2022-08-11T06:04:04.406Z,2.00
2022-08-11T06:06:33.389Z,1.80
2022-08-11T06:09:02.687Z,1.63
2022-08-11T06:11:43.978Z,1.45
2022-08-11T06:14:16.462Z,1.77
2022-08-11T06:16:48.721Z,1.67
2022-08-11T06:19:19.601Z,1.63
2022-08-11T06:21:49.078Z,1.80
2022-08-11T06:24:17.849Z,1.67
2022-08-11T06:27:11.763Z,1.38
2022-08-11T06:29:55.344Z,1.50
2022-08-11T06:32:28.215Z,1.35
2022-08-11T06:35:22.871Z,1.48
2022-08-11T06:38:07.526Z,1.73
2022-08-11T06:40:44.707Z,1.42
2022-08-11T06:43:20.214Z,1.80
2022-08-11T06:46:03.352Z,1.45
2022-08-11T06:48:34.138Z,1.40
2022-08-11T06:51:13.874Z,1.30
2022-08-11T06:53:56.370Z,1.60
2022-08-11T06:57:12.419Z,1.58
2022-08-11T07:00:01.568Z,1.13
2022-08-11T07:02:35.719Z,1.52
2022-08-11T07:05:11.799Z,1.67
2022-08-11T07:08:46.539Z,1.50
2022-08-11T07:12:08.301Z,1.58
2022-08-11T07:15:00.948Z,1.60
2022-08-11T07:17:33.372Z,1.30
2022-08-11T07:20:21.748Z,1.58
2022-08-11T07:23:13.645Z,1.13
2022-08-11T07:26:03.846Z,1.20
2022-08-11T07:28:52.594Z,1.33
2022-08-11T07:31:33.419Z,1.20
2022-08-11T07:34:19.042Z,1.40
2022-08-11T07:36:53.777Z,1.27
2022-08-11T07:39:25.360Z,1.15
2022-08-11T07:41:57.082Z,1.30
2022-08-11T07:44:34.305Z,1.08
2022-08-11T07:47:21.536Z,1.10
2022-08-11T07:50:12.097Z,1.10
2022-08-11T07:52:41.007Z,1.20
2022-08-11T07:55:16.189Z,1.10
2022-08-11T07:58:16.736Z,0.80
2022-08-11T08:01:21.315Z,0.90
2022-08-11T08:04:08.599Z,0.80
2022-08-11T08:06:56.980Z,0.93
2022-08-11T08:09:53.278Z,0.70
2022-08-11T08:12:47.438Z,0.70
2022-08-11T08:15:39.649Z,0.60
2022-08-11T08:18:25.903Z,0.90
2022-08-11T08:21:14.218Z,0.88
2022-08-11T08:23:53.705Z,0.98
2022-08-11T08:26:43.272Z,0.80
2022-08-11T08:29:39.027Z,0.88
2022-08-11T08:32:11.116Z,0.77
2022-08-11T08:34:41.259Z,0.80
2022-08-11T08:37:15.911Z,0.60
2022-08-11T08:39:59.896Z,0.65
2022-08-11T08:42:30.688Z,0.50
2022-08-11T08:45:08.548Z,0.50
2022-08-11T08:47:42.713Z,0.50
2022-08-11T08:52:20.436Z,0.60
2022-08-11T08:53:07.538Z,0.52
2022-08-11T08:55:39.464Z,0.50
2022-08-11T08:58:10.160Z,0.32
2022-08-11T09:00:43.990Z,0.40
2022-08-11T09:03:39.135Z,0.40
2022-08-11T09:06:02.341Z,0.50
2022-08-11T09:08:33.236Z,0.25
2022-08-11T09:11:21.897Z,0.52
2022-08-11T09:14:04.761Z,0.50
2022-08-11T09:16:36.679Z,0.40
2022-08-11T09:19:05.402Z,0.35
2022-08-11T09:21:49.235Z,0.40
2022-08-11T09:24:36.832Z,0.40
2022-08-11T09:27:08.902Z,0.35
2022-08-11T09:29:39.349Z,0.40
2022-08-11T09:32:08.901Z,0.30
2022-08-11T09:34:38.626Z,0.30
2022-08-11T09:37:54.584Z,0.30
2022-08-11T09:40:31.146Z,0.30
2022-08-11T09:43:22.501Z,0.20
2022-08-11T09:45:54.389Z,0.50
2022-08-11T09:48:24.987Z,0.50
2022-08-11T09:50:56.395Z,0.40
2022-08-11T09:53:35.942Z,0.35
2022-08-11T09:56:31.808Z,0.73
2022-08-11T09:59:04.415Z,0.70
2022-08-11T10:01:40.601Z,0.50
2022-08-11T10:04:16.369Z,0.60
2022-08-11T10:07:06.911Z,0.73
2022-08-11T10:09:42.848Z,0.70
2022-08-11T10:12:24.475Z,0.50
2022-08-11T10:15:17.735Z,0.50
2022-08-11T10:18:04.723Z,0.50
2022-08-11T10:20:36.623Z,0.40
2022-08-11T10:23:23.651Z,0.43
2022-08-11T10:26:10.497Z,0.50
2022-08-11T10:29:02.214Z,0.70
2022-08-11T10:31:57.807Z,0.40
2022-08-11T10:34:29.295Z,0.30
2022-08-11T10:37:02.985Z,0.30
2022-08-11T10:39:31.440Z,0.30
2022-08-11T10:42:35.047Z,0.43
2022-08-11T10:45:29.080Z,0.40
2022-08-11T10:47:58.814Z,0.30
2022-08-11T10:50:45.213Z,0.50
2022-08-11T10:53:33.430Z,0.50
2022-08-11T10:56:21.012Z,0.50
2022-08-11T10:58:49.984Z,0.30
2022-08-11T11:01:28.598Z,0.25
2022-08-11T11:04:01.891Z,0.25
2022-08-11T11:06:43.974Z,0.40
2022-08-11T11:09:18.445Z,0.40
2022-08-11T11:12:09.357Z,0.40
2022-08-11T11:14:59.294Z,0.30
2022-08-11T11:17:52.071Z,0.40
2022-08-11T11:20:35.900Z,0.40
2022-08-11T11:23:13.873Z,0.55
2022-08-11T11:26:27.199Z,0.50
2022-08-11T11:29:34.443Z,0.32
2022-08-11T11:32:21.450Z,0.40
2022-08-11T11:35:34.394Z,0.30
2022-08-11T11:38:04.479Z,0.40
2022-08-11T11:40:34.301Z,0.40
2022-08-11T11:43:03.028Z,0.40
2022-08-11T11:45:32.556Z,0.40
2022-08-11T11:48:02.251Z,0.47
2022-08-11T11:50:35.596Z,0.55
2022-08-11T11:53:07.537Z,0.50
2022-08-11T11:55:37.259Z,0.50
2022-08-11T11:58:23.967Z,0.40
2022-08-11T12:01:11.944Z,0.22
2022-08-11T12:03:41.759Z,0.40
2022-08-11T12:06:14.197Z,0.28
2022-08-11T12:08:44.038Z,0.40
2022-08-11T12:11:30.536Z,0.40
2022-08-11T12:14:01.337Z,0.50
2022-08-11T12:16:32.981Z,0.40
2022-08-11T12:19:08.133Z,0.35
2022-08-11T12:22:00.913Z,0.38
2022-08-11T12:24:48.644Z,0.50
2022-08-11T12:27:25.445Z,0.40
2022-08-11T12:29:58.416Z,0.52
2022-08-11T12:32:31.118Z,0.38
2022-08-11T12:35:00.209Z,0.40
2022-08-11T12:37:33.158Z,0.30
2022-08-11T12:40:43.301Z,0.30
2022-08-11T12:43:37.132Z,0.22
2022-08-11T12:46:09.974Z,0.30
2022-08-11T12:49:03.453Z,0.40
2022-08-11T12:52:14.111Z,0.40
2022-08-11T12:54:52.773Z,0.63
2022-08-11T12:57:51.953Z,0.45
2022-08-11T13:00:39.487Z,0.30
2022-08-11T13:03:27.757Z,0.28
2022-08-11T13:05:58.915Z,0.30
2022-08-11T13:08:30.310Z,0.32
2022-08-11T13:11:19.793Z,0.38
2022-08-11T13:13:54.100Z,0.30
2022-08-11T13:16:27.964Z,0.20
2022-08-11T13:18:57.378Z,0.20
2022-08-11T13:21:26.147Z,0.30
2022-08-11T13:24:01.294Z,0.25
2022-08-11T13:26:47.763Z,0.25
2022-08-11T13:29:24.563Z,0.35
2022-08-11T13:31:54.652Z,0.20
2022-08-11T13:34:26.714Z,0.20
2022-08-11T13:36:58.266Z,0.30
2022-08-11T13:39:29.931Z,0.30
2022-08-11T13:42:02.569Z,0.20
2022-08-11T13:44:35.862Z,0.30
2022-08-11T13:47:07.475Z,0.22
2022-08-11T13:49:39.559Z,0.17
2022-08-11T13:52:13.946Z,0.28
2022-08-11T13:54:44.810Z,0.28
2022-08-11T13:58:08.506Z,0.20
2022-08-11T14:00:20.891Z,0.20
2022-08-11T14:02:58.174Z,0.20
2022-08-11T14:05:30.358Z,0.20
2022-08-11T14:08:03.196Z,0.20
2022-08-11T14:10:39.092Z,0.30
2022-08-11T14:13:43.314Z,0.50
2022-08-11T14:16:23.455Z,0.50
2022-08-11T14:18:55.872Z,0.40
2022-08-11T14:21:43.683Z,0.40
2022-08-11T14:24:13.107Z,0.30
2022-08-11T14:26:44.256Z,0.30
2022-08-11T14:29:17.830Z,0.30
2022-08-11T14:31:49.988Z,0.20
2022-08-11T14:34:22.249Z,0.20
2022-08-11T14:36:53.755Z,0.30
2022-08-11T14:39:25.950Z,0.30
2022-08-11T14:42:15.484Z,0.50
2022-08-11T14:45:05.335Z,0.20
2022-08-11T14:47:37.314Z,0.20
2022-08-11T14:50:12.515Z,0.25
2022-08-11T14:52:49.267Z,0.30
2022-08-11T14:55:36.083Z,0.40
2022-08-11T14:58:05.382Z,0.20
2022-08-11T15:00:36.543Z,0.20
2022-08-11T15:03:12.405Z,0.20
2022-08-11T15:05:57.089Z,0.30
2022-08-11T15:08:53.141Z,0.22
2022-08-11T15:11:43.157Z,0.20
2022-08-11T15:14:13.435Z,0.40
2022-08-11T15:17:03.517Z,0.20
2022-08-11T15:19:40.746Z,0.30
2022-08-11T15:22:28.387Z,0.30
2022-08-11T15:24:59.357Z,0.35
2022-08-11T15:27:47.450Z,0.30
2022-08-11T15:30:34.223Z,0.30
2022-08-11T15:33:26.922Z,0.40
2022-08-11T15:36:14.614Z,0.40
2022-08-11T15:38:58.777Z,0.30
2022-08-11T15:41:58.314Z,0.30
2022-08-11T15:45:05.368Z,0.30
2022-08-11T15:47:41.307Z,0.20
2022-08-11T15:50:16.603Z,0.30
2022-08-11T15:52:53.981Z,0.20
2022-08-11T15:55:24.569Z,0.20
2022-08-11T15:58:12.883Z,0.20
2022-08-11T16:01:04.114Z,0.30
2022-08-11T16:04:07.493Z,0.17
2022-08-11T16:06:47.857Z,0.22
2022-08-11T16:09:25.104Z,0.22
2022-08-11T16:11:59.962Z,0.20
2022-08-11T16:14:47.235Z,0.20
2022-08-11T16:17:17.577Z,0.30
2022-08-11T16:19:47.957Z,0.17
2022-08-11T16:22:34.216Z,0.38
2022-08-11T16:26:38.732Z,0.30
2022-08-11T16:27:58.206Z,0.40
2022-08-11T16:30:28.492Z,0.22
2022-08-11T16:33:00.024Z,0.35
2022-08-11T16:36:10.277Z,0.20
2022-08-11T16:38:40.879Z,0.40
2022-08-11T16:41:12.454Z,0.50
2022-08-11T16:44:02.846Z,0.50
2022-08-11T16:46:50.423Z,0.40
2022-08-11T16:49:26.110Z,0.40
2022-08-11T16:51:54.618Z,0.40
2022-08-11T16:54:24.472Z,0.28
2022-08-11T16:57:18.581Z,0.40
2022-08-11T16:59:49.147Z,0.30
2022-08-11T17:02:41.222Z,0.30
2022-08-11T17:05:31.257Z,0.10
2022-08-11T17:08:22.809Z,0.20
2022-08-11T17:11:16.726Z,0.20
2022-08-11T17:13:53.550Z,0.30
2022-08-11T17:16:26.316Z,0.20
2022-08-11T17:19:00.913Z,0.38
2022-08-11T17:21:33.713Z,0.40
2022-08-11T17:24:08.689Z,0.25
2022-08-11T17:26:56.969Z,0.30
2022-08-11T17:29:30.690Z,0.47
2022-08-11T17:32:18.595Z,0.60
2022-08-11T17:35:06.013Z,0.50
2022-08-11T17:37:38.164Z,0.30
2022-08-11T17:40:12.327Z,0.30
2022-08-11T17:43:02.066Z,0.20
2022-08-11T17:45:56.365Z,0.40
2022-08-11T17:48:28.509Z,0.28
2022-08-11T17:51:01.461Z,0.30
2022-08-11T17:54:10.206Z,0.30
2022-08-11T17:56:58.267Z,0.30
2022-08-11T17:59:49.389Z,0.30
2022-08-11T18:02:38.599Z,0.30
2022-08-11T18:05:12.731Z,0.30
2022-08-11T18:08:00.858Z,0.30
2022-08-11T18:10:50.771Z,0.40
2022-08-11T18:13:40.819Z,0.28
2022-08-11T18:16:28.652Z,0.43
2022-08-11T18:19:14.555Z,0.30
2022-08-11T18:22:14.481Z,0.30
2022-08-11T18:25:09.434Z,0.10
2022-08-11T18:28:00.759Z,0.40
2022-08-11T18:30:49.737Z,0.30
2022-08-11T18:36:55.169Z,0.30
2022-08-11T18:39:56.175Z,0.20
2022-08-11T18:42:43.078Z,0.22
2022-08-11T18:45:35.818Z,0.30
2022-08-11T18:48:40.877Z,0.28
2022-08-11T18:51:36.514Z,0.20
2022-08-11T18:54:27.690Z,0.20
2022-08-11T18:57:16.890Z,0.30
2022-08-11T19:00:04.870Z,0.20
2022-08-11T19:02:54.393Z,0.30
2022-08-11T19:06:32.302Z,0.40
2022-08-11T19:08:56.449Z,0.30
2022-08-11T19:11:44.146Z,0.60
2022-08-11T19:14:31.609Z,0.63
2022-08-11T19:17:44.425Z,0.63
2022-08-11T19:20:29.716Z,0.40
2022-08-11T19:23:17.821Z,0.35
2022-08-11T19:26:05.548Z,0.65
2022-08-11T19:28:54.038Z,0.32
2022-08-11T19:31:44.827Z,0.47
2022-08-11T19:34:34.994Z,0.40
2022-08-11T19:37:24.607Z,0.30
2022-08-11T19:40:14.982Z,0.70
2022-08-11T19:43:01.911Z,0.47
2022-08-11T19:45:52.512Z,0.47
2022-08-11T19:48:40.603Z,0.60
2022-08-11T19:51:28.524Z,0.38
2022-08-11T19:54:15.571Z,0.45
2022-08-11T19:57:04.209Z,0.40
2022-08-11T19:59:50.785Z,0.40
2022-08-11T20:02:37.521Z,0.40
2022-08-11T20:05:24.179Z,0.38
2022-08-11T20:08:12.967Z,0.50
2022-08-11T20:11:00.306Z,0.40
2022-08-11T20:13:48.073Z,0.50
2022-08-11T20:16:39.119Z,0.50
2022-08-11T20:19:55.923Z,0.60
2022-08-11T20:22:35.545Z,0.55
2022-08-11T20:25:24.741Z,0.40
2022-08-11T20:28:11.830Z,0.40
2022-08-11T20:31:01.139Z,0.38
2022-08-11T20:33:47.400Z,0.57
2022-08-11T20:36:36.036Z,0.60
2022-08-11T20:39:22.465Z,0.50
2022-08-11T20:42:09.472Z,0.60
2022-08-11T20:44:58.256Z,0.70
2022-08-11T20:47:59.024Z,0.60
2022-08-11T20:50:46.989Z,0.40
2022-08-11T20:53:38.965Z,0.40
2022-08-11T20:56:28.698Z,0.60
2022-08-11T20:59:18.705Z,0.73
2022-08-11T21:02:09.966Z,0.40
2022-08-11T21:05:00.149Z,0.60
2022-08-11T21:07:57.283Z,0.50
2022-08-11T21:10:52.027Z,0.63
2022-08-11T21:13:42.813Z,0.45
2022-08-11T21:16:36.235Z,0.60
2022-08-11T21:20:01.417Z,0.60
2022-08-11T21:22:59.510Z,0.40
2022-08-11T21:25:59.383Z,0.60
2022-08-11T21:28:47.736Z,0.43
2022-08-11T21:31:35.560Z,0.50
2022-08-11T21:34:22.441Z,0.57
2022-08-11T21:37:09.568Z,0.60
2022-08-11T21:39:58.664Z,0.52
2022-08-11T21:42:46.303Z,0.50
2022-08-11T21:45:32.627Z,0.50
2022-08-11T21:48:18.978Z,0.60
2022-08-11T21:51:04.602Z,0.60
2022-08-11T21:53:51.167Z,0.75
2022-08-11T21:56:38.578Z,0.68
2022-08-11T21:59:24.276Z,0.50
2022-08-11T22:02:12.842Z,0.60
2022-08-11T22:04:59.257Z,0.57
2022-08-11T22:07:44.935Z,0.80
2022-08-11T22:10:42.095Z,0.68
2022-08-11T22:13:31.241Z,0.63
2022-08-11T22:16:17.580Z,0.68
2022-08-11T22:19:05.534Z,0.70
2022-08-11T22:21:59.605Z,0.55
2022-08-11T22:24:50.775Z,0.60
2022-08-11T22:27:36.238Z,0.68
2022-08-11T22:30:25.907Z,0.60
2022-08-11T22:33:15.039Z,0.65
2022-08-11T22:36:03.318Z,0.60
2022-08-11T22:38:52.160Z,0.68
2022-08-11T22:41:39.895Z,0.88
2022-08-11T22:44:26.271Z,0.52
2022-08-11T22:47:15.369Z,0.70
2022-08-11T22:50:11.650Z,0.57
2022-08-11T22:52:57.287Z,0.55
2022-08-11T22:55:44.915Z,0.75
2022-08-11T22:58:33.102Z,0.77
2022-08-11T23:01:20.670Z,0.98
2022-08-11T23:04:15.333Z,0.75
2022-08-11T23:07:01.356Z,0.80
2022-08-11T23:09:47.939Z,0.80
2022-08-11T23:12:34.773Z,0.73
2022-08-11T23:15:21.336Z,0.70
2022-08-11T23:18:07.439Z,0.70
2022-08-11T23:20:56.758Z,0.60
2022-08-11T23:23:43.620Z,0.85
2022-08-11T23:26:30.370Z,0.80
2022-08-11T23:29:17.665Z,0.80
2022-08-11T23:32:05.777Z,0.93
2022-08-11T23:35:03.670Z,0.80
2022-08-11T23:38:05.652Z,1.00
2022-08-11T23:40:51.542Z,0.82
2022-08-11T23:43:42.679Z,0.90
2022-08-11T23:46:29.569Z,1.00
2022-08-11T23:49:19.146Z,1.05
2022-08-11T23:52:05.871Z,0.85
2022-08-11T23:54:54.187Z,0.80
2022-08-11T23:57:47.880Z,0.80
